Time;durP1;ratioP1;P1;durP2;ratioP2;P2;SDS_P1;SDS_P2;PMS_P1;PMS_P2;Temp;Humidity;BMP_temperature;BMP_pressure;BME280_temperature;BME280_humidity;BME280_pressure;Samples;Min_cycle;Max_cycle;Signal;HPM_P1;HPM_P2
2024/03/09 00:00:40;;;;;;;22.60;10.10;;;2.70;99.90;;;;;;5043067;28;20551;-69
2024/03/09 00:03:10;;;;;;;22.23;10.30;;;2.70;99.90;;;;;;5044925;28;20462;-70
2024/03/09 00:05:40;;;;;;;19.10;9.57;;;2.70;99.90;;;;;;5044262;28;20474;-70
2024/03/09 00:08:08;;;;;;;19.77;10.60;;;2.70;99.90;;;;;;5039361;28;20529;-70
2024/03/09 00:10:37;;;;;;;19.70;8.67;;;2.80;99.90;;;;;;5043594;28;20529;-72
2024/03/09 00:13:09;;;;;;;19.27;10.60;;;2.70;99.90;;;;;;5044193;28;20451;-70
2024/03/09 00:15:39;;;;;;;20.47;10.00;;;2.70;99.90;;;;;;5043823;28;20861;-69
2024/03/09 00:18:09;;;;;;;20.10;9.63;;;2.60;99.90;;;;;;5047220;28;20870;-70
2024/03/09 00:20:37;;;;;;;21.67;10.30;;;2.50;99.90;;;;;;5043824;28;20463;-70
2024/03/09 00:23:07;;;;;;;18.50;10.30;;;2.40;99.90;;;;;;5044124;28;20535;-70
2024/03/09 00:25:37;;;;;;;18.90;9.83;;;2.50;99.90;;;;;;5038198;28;20816;-70
2024/03/09 00:28:06;;;;;;;21.27;10.17;;;2.50;99.90;;;;;;5046960;28;20487;-70
2024/03/09 00:30:35;;;;;;;22.57;10.50;;;2.50;99.90;;;;;;5039709;28;20552;-69
2024/03/09 00:33:05;;;;;;;23.10;10.23;;;2.50;99.90;;;;;;5048378;28;20902;-71
2024/03/09 00:35:36;;;;;;;20.00;9.80;;;2.60;99.90;;;;;;5040572;28;20444;-69
2024/03/09 00:38:05;;;;;;;21.27;10.10;;;2.60;99.90;;;;;;5046840;28;20868;-70
2024/03/09 00:40:34;;;;;;;22.70;10.80;;;2.70;99.90;;;;;;5046157;28;20463;-71
2024/03/09 00:43:05;;;;;;;20.93;10.20;;;2.70;99.90;;;;;;5046331;28;20512;-70
2024/03/09 00:45:34;;;;;;;21.10;10.80;;;2.60;99.90;;;;;;5039358;28;20439;-69
2024/03/09 00:48:03;;;;;;;23.93;12.17;;;2.50;99.90;;;;;;5046563;28;21091;-72
2024/03/09 00:50:32;;;;;;;22.60;11.13;;;2.50;99.90;;;;;;5046615;28;20481;-71
2024/03/09 00:53:02;;;;;;;23.20;12.83;;;2.50;99.90;;;;;;5046208;28;20963;-69
2024/03/09 00:55:31;;;;;;;24.90;12.43;;;2.50;99.90;;;;;;5045851;28;20471;-69
2024/03/09 00:58:01;;;;;;;23.47;12.60;;;2.50;99.90;;;;;;5046255;28;20443;-71
2024/03/09 01:00:29;;;;;;;22.53;12.20;;;2.40;99.90;;;;;;5046063;28;20463;-70
2024/03/09 01:02:57;;;;;;;23.20;12.10;;;2.40;99.90;;;;;;5043896;28;20462;-69
2024/03/09 01:05:26;;;;;;;23.97;11.93;;;2.40;99.90;;;;;;5046734;28;20448;-67
2024/03/09 01:07:56;;;;;;;21.23;11.17;;;2.30;99.90;;;;;;5029538;28;21084;-70
2024/03/09 01:10:25;;;;;;;20.50;10.60;;;2.30;99.90;;;;;;5025510;28;21042;-69
2024/03/09 01:12:53;;;;;;;23.33;11.50;;;2.30;99.90;;;;;;5044346;28;20477;-68
2024/03/09 01:15:23;;;;;;;22.30;11.30;;;2.20;99.90;;;;;;5048380;28;20527;-68
2024/03/09 01:17:51;;;;;;;19.40;10.10;;;2.20;99.90;;;;;;5048300;28;20448;-68
2024/03/09 01:20:19;;;;;;;22.27;11.83;;;2.10;99.90;;;;;;5047842;28;21021;-69
2024/03/09 01:22:47;;;;;;;19.83;10.87;;;2.00;99.90;;;;;;5048551;28;21015;-68
2024/03/09 01:25:15;;;;;;;22.07;11.20;;;2.00;99.90;;;;;;5047594;28;20534;-68
2024/03/09 01:27:45;;;;;;;23.70;11.30;;;2.00;99.90;;;;;;5047404;28;20487;-70
2024/03/09 01:30:15;;;;;;;22.90;11.80;;;2.20;99.90;;;;;;5047645;28;20464;-68
2024/03/09 01:32:43;;;;;;;24.90;11.63;;;2.20;99.90;;;;;;5048593;28;21188;-68
2024/03/09 01:35:12;;;;;;;22.13;10.70;;;2.20;99.90;;;;;;5048048;28;20456;-68
2024/03/09 01:37:42;;;;;;;25.37;11.60;;;2.20;99.90;;;;;;5049204;28;20451;-68
2024/03/09 01:40:11;;;;;;;24.10;11.70;;;2.20;99.90;;;;;;5048335;28;20877;-67
2024/03/09 01:42:39;;;;;;;22.70;11.07;;;2.10;99.90;;;;;;5047908;28;21089;-69
2024/03/09 01:45:09;;;;;;;23.13;10.70;;;2.10;99.90;;;;;;5047989;28;20501;-67
2024/03/09 01:47:39;;;;;;;22.70;12.03;;;2.00;99.90;;;;;;5048249;28;20566;-68
2024/03/09 01:50:10;;;;;;;20.57;11.37;;;2.00;99.90;;;;;;5048892;28;20468;-68
2024/03/09 01:52:39;;;;;;;21.90;10.93;;;2.00;99.90;;;;;;5041795;28;20444;-67
2024/03/09 01:55:10;;;;;;;24.27;11.23;;;2.00;99.90;;;;;;5048624;28;20513;-68
2024/03/09 01:57:38;;;;;;;21.63;11.17;;;2.00;99.90;;;;;;5047069;28;20512;-68
2024/03/09 02:00:09;;;;;;;26.60;12.23;;;1.90;99.90;;;;;;5048130;28;20498;-68
2024/03/09 02:02:37;;;;;;;21.00;11.50;;;1.80;99.90;;;;;;5048494;28;20447;-67
2024/03/09 02:05:10;;;;;;;23.17;12.00;;;1.80;99.90;;;;;;5048562;28;20459;-67
2024/03/09 02:07:40;;;;;;;22.30;10.60;;;1.70;99.90;;;;;;5041061;28;20475;-68
2024/03/09 02:10:11;;;;;;;21.60;10.60;;;1.90;99.90;;;;;;5049592;28;20638;-68
2024/03/09 02:12:42;;;;;;;23.83;11.93;;;2.00;99.90;;;;;;5045140;28;20471;-68
2024/03/09 02:15:16;;;;;;;27.73;13.73;;;1.90;99.90;;;;;;5048625;28;20927;-68
2024/03/09 02:17:47;;;;;;;24.50;10.70;;;2.00;99.90;;;;;;5035614;28;20437;-68
2024/03/09 02:20:17;;;;;;;21.57;11.60;;;2.00;99.90;;;;;;5047189;28;20467;-68
2024/03/09 02:22:46;;;;;;;23.37;11.00;;;2.00;99.90;;;;;;5048100;28;20527;-69
2024/03/09 02:25:18;;;;;;;22.10;12.00;;;2.00;99.90;;;;;;5047974;28;20448;-68
2024/03/09 02:27:46;;;;;;;21.10;11.40;;;2.00;99.90;;;;;;5048304;28;20482;-68
2024/03/09 02:30:14;;;;;;;22.17;11.67;;;2.10;99.90;;;;;;5047525;28;20463;-68
2024/03/09 02:32:43;;;;;;;22.50;10.87;;;2.20;99.90;;;;;;5051015;28;20490;-69
2024/03/09 02:35:11;;;;;;;23.73;11.17;;;2.20;99.90;;;;;;5051312;28;20853;-67
2024/03/09 02:37:39;;;;;;;21.63;11.20;;;2.20;99.90;;;;;;5048299;28;20521;-68
2024/03/09 02:40:11;;;;;;;20.33;11.13;;;2.30;99.90;;;;;;5047022;28;20502;-67
2024/03/09 02:43:04;;;;;;;22.40;11.77;;;2.40;99.90;;;;;;5039938;28;20470;-68
2024/03/09 02:45:29;;;;;;;26.10;11.83;;;2.40;99.90;;;;;;5047040;28;20443;-67
2024/03/09 02:47:57;;;;;;;24.30;12.60;;;2.40;99.90;;;;;;5047841;28;20488;-69
2024/03/09 02:50:26;;;;;;;23.47;12.10;;;2.40;99.90;;;;;;5047050;28;20221;-69
2024/03/09 02:52:55;;;;;;;24.53;12.37;;;2.40;99.90;;;;;;5047631;28;20448;-69
2024/03/09 02:55:23;;;;;;;22.90;11.40;;;2.30;99.90;;;;;;5047520;28;20471;-68
2024/03/09 02:57:53;;;;;;;22.40;11.40;;;2.30;99.90;;;;;;5047467;28;20440;-68
2024/03/09 03:00:23;;;;;;;22.90;11.60;;;2.30;99.90;;;;;;5047407;28;20470;-68
2024/03/09 03:05:36;;;;;;;22.97;10.83;;;2.30;99.90;;;;;;5047517;28;20491;-66
2024/03/09 03:08:05;;;;;;;21.70;11.10;;;2.40;99.90;;;;;;5047627;28;20471;-68
2024/03/09 03:10:33;;;;;;;22.50;11.10;;;2.70;99.90;;;;;;5046485;28;20992;-68
2024/03/09 03:13:04;;;;;;;21.33;10.90;;;2.70;99.90;;;;;;5046936;28;20505;-68
2024/03/09 03:15:32;;;;;;;23.30;10.97;;;2.80;99.90;;;;;;5046831;28;20448;-68
2024/03/09 03:18:00;;;;;;;23.50;10.57;;;2.80;99.90;;;;;;5047565;28;20518;-68
2024/03/09 03:20:30;;;;;;;20.80;10.70;;;2.70;99.90;;;;;;5051215;28;20479;-68
2024/03/09 03:22:59;;;;;;;19.93;10.40;;;2.70;99.90;;;;;;5044972;28;20475;-67
2024/03/09 03:25:28;;;;;;;20.90;10.53;;;2.70;99.90;;;;;;5047378;28;20558;-68
2024/03/09 03:27:57;;;;;;;21.73;11.47;;;2.70;99.90;;;;;;5046513;28;21222;-68
2024/03/09 03:30:26;;;;;;;19.70;10.57;;;2.70;99.90;;;;;;5046758;28;20463;-68
2024/03/09 03:32:54;;;;;;;21.87;11.50;;;2.90;99.90;;;;;;5046644;28;20448;-68
2024/03/09 03:35:25;;;;;;;21.63;10.60;;;3.00;99.90;;;;;;5047270;28;20468;-68
2024/03/09 03:37:54;;;;;;;21.13;11.10;;;3.00;99.90;;;;;;5051871;28;21252;-67
2024/03/09 03:40:23;;;;;;;22.90;11.90;;;3.00;99.90;;;;;;5044473;28;20478;-68
2024/03/09 03:42:52;;;;;;;19.83;9.80;;;2.90;99.90;;;;;;5046616;28;20539;-68
2024/03/09 03:45:21;;;;;;;20.50;9.87;;;3.10;99.90;;;;;;5046606;28;20524;-68
2024/03/09 03:47:50;;;;;;;23.17;11.63;;;3.00;99.90;;;;;;5046916;28;20468;-68
2024/03/09 03:50:18;;;;;;;24.20;12.53;;;3.00;99.90;;;;;;5046650;28;20511;-67
2024/03/09 03:52:47;;;;;;;20.60;9.80;;;3.00;99.90;;;;;;5047674;28;20467;-67
2024/03/09 03:55:15;;;;;;;22.27;10.53;;;3.10;99.90;;;;;;5046385;28;20960;-68
2024/03/09 03:57:43;;;;;;;24.90;11.17;;;3.00;99.90;;;;;;5046622;28;20468;-67
2024/03/09 04:00:16;;;;;;;22.17;11.90;;;3.00;99.90;;;;;;5046001;28;21534;-68
2024/03/09 04:02:44;;;;;;;24.07;10.73;;;3.00;99.90;;;;;;5050381;28;20464;-67
2024/03/09 04:05:13;;;;;;;18.10;9.50;;;3.00;99.90;;;;;;5050761;28;21174;-67
2024/03/09 04:07:41;;;;;;;22.63;9.77;;;3.20;99.90;;;;;;5054331;28;20482;-68
2024/03/09 04:10:13;;;;;;;19.60;10.33;;;3.10;99.90;;;;;;5054580;28;20489;-68
2024/03/09 04:12:42;;;;;;;18.97;9.77;;;3.20;99.90;;;;;;5042825;28;20481;-68
2024/03/09 04:15:10;;;;;;;20.60;10.77;;;3.20;99.90;;;;;;5051247;28;20456;-68
2024/03/09 04:17:38;;;;;;;24.20;11.93;;;3.30;99.90;;;;;;5050914;28;20827;-68
2024/03/09 04:20:07;;;;;;;23.57;11.87;;;3.40;99.90;;;;;;5047822;28;20459;-67
2024/03/09 04:22:37;;;;;;;20.13;11.93;;;3.40;99.90;;;;;;5049448;28;20477;-68
2024/03/09 04:25:08;;;;;;;21.00;11.50;;;3.30;99.90;;;;;;5055592;28;20495;-68
2024/03/09 04:27:37;;;;;;;20.37;10.07;;;3.20;99.90;;;;;;5045073;28;20819;-68
2024/03/09 04:30:06;;;;;;;22.17;11.20;;;3.20;99.90;;;;;;5050439;28;20582;-67
2024/03/09 04:32:34;;;;;;;22.17;11.73;;;3.20;99.90;;;;;;5050170;28;20558;-68
2024/03/09 04:35:05;;;;;;;20.60;11.73;;;3.10;99.90;;;;;;5050641;28;20849;-68
2024/03/09 04:37:34;;;;;;;23.90;12.27;;;3.20;99.90;;;;;;5049839;28;20996;-68
2024/03/09 04:40:14;;;;;;;22.80;11.87;;;3.20;99.90;;;;;;5051177;28;20475;-67
2024/03/09 04:42:46;;;;;;;22.90;11.07;;;3.20;99.90;;;;;;5049108;28;20578;-68
2024/03/09 04:45:14;;;;;;;23.57;12.43;;;3.20;99.90;;;;;;5050075;28;20471;-67
2024/03/09 04:47:43;;;;;;;22.97;11.00;;;3.30;99.90;;;;;;5050023;28;21156;-68
2024/03/09 04:50:11;;;;;;;19.70;10.53;;;3.30;99.90;;;;;;5049544;28;20483;-68
2024/03/09 04:52:39;;;;;;;25.43;12.00;;;3.30;99.90;;;;;;5049731;28;20467;-68
2024/03/09 04:55:09;;;;;;;22.73;11.47;;;3.30;99.90;;;;;;5051990;28;20568;-67
2024/03/09 04:57:43;;;;;;;22.73;11.90;;;3.40;99.90;;;;;;5050260;28;20525;-68
2024/03/09 05:00:15;;;;;;;34.20;12.30;;;3.30;99.90;;;;;;5049802;28;20467;-68
2024/03/09 05:02:44;;;;;;;26.50;12.10;;;3.30;99.90;;;;;;5041553;28;20456;-68
2024/03/09 05:05:13;;;;;;;28.10;12.60;;;3.40;99.90;;;;;;5049651;28;20491;-68
2024/03/09 05:07:43;;;;;;;21.60;12.00;;;3.50;99.90;;;;;;5049915;28;20618;-68
2024/03/09 05:10:17;;;;;;;22.53;11.50;;;3.50;99.90;;;;;;5049339;28;20533;-67
2024/03/09 05:12:50;;;;;;;23.20;10.70;;;3.50;99.90;;;;;;5048522;28;20475;-68
2024/03/09 05:15:18;;;;;;;24.50;12.00;;;3.50;99.90;;;;;;5049390;28;20965;-67
2024/03/09 05:17:46;;;;;;;26.13;11.70;;;3.50;99.90;;;;;;5049828;28;20582;-68
2024/03/09 05:20:20;;;;;;;23.27;10.33;;;3.60;99.90;;;;;;5049333;28;20883;-67
2024/03/09 05:22:49;;;;;;;21.47;11.13;;;3.60;99.90;;;;;;5042199;28;20946;-68
2024/03/09 05:25:18;;;;;;;23.70;12.20;;;3.60;99.90;;;;;;5048000;28;20542;-67
2024/03/09 05:27:46;;;;;;;21.77;11.40;;;3.60;99.90;;;;;;5045791;28;20451;-68
2024/03/09 05:30:17;;;;;;;20.37;10.53;;;3.50;99.90;;;;;;5043797;28;20895;-66
2024/03/09 05:32:50;;;;;;;24.67;12.43;;;3.50;99.90;;;;;;5049192;28;20460;-67
2024/03/09 05:35:20;;;;;;;23.13;12.03;;;3.50;99.90;;;;;;5048994;28;20470;-67
2024/03/09 05:37:49;;;;;;;23.17;11.80;;;3.50;99.90;;;;;;5049133;28;20517;-68
2024/03/09 05:40:20;;;;;;;23.93;12.70;;;3.50;99.90;;;;;;5047739;28;21206;-68
2024/03/09 05:42:50;;;;;;;23.93;11.30;;;3.60;99.90;;;;;;5048374;28;20475;-68
2024/03/09 05:45:20;;;;;;;20.87;10.73;;;3.60;99.90;;;;;;5048246;28;20491;-67
2024/03/09 05:47:48;;;;;;;21.33;10.80;;;3.60;99.90;;;;;;5049085;28;20493;-68
2024/03/09 05:50:17;;;;;;;23.23;11.77;;;3.60;99.90;;;;;;5048554;28;20545;-68
2024/03/09 05:52:47;;;;;;;23.77;13.20;;;3.70;99.90;;;;;;5044996;28;20618;-68
2024/03/09 05:55:16;;;;;;;27.37;13.20;;;3.80;99.90;;;;;;5048722;28;20448;-68
2024/03/09 05:57:48;;;;;;;22.57;11.77;;;3.80;99.90;;;;;;5044758;28;20526;-68
2024/03/09 06:00:19;;;;;;;24.33;11.77;;;3.80;99.90;;;;;;5050169;28;20550;-68
2024/03/09 06:02:47;;;;;;;22.60;14.07;;;3.80;99.90;;;;;;5048775;28;20444;-68
2024/03/09 06:05:16;;;;;;;22.10;11.97;;;3.70;99.90;;;;;;5042725;28;20824;-68
2024/03/09 06:07:45;;;;;;;29.73;14.07;;;3.70;99.90;;;;;;5044441;28;20452;-68
2024/03/09 06:10:16;;;;;;;25.87;13.40;;;3.70;99.90;;;;;;5048290;28;20598;-68
2024/03/09 06:12:47;;;;;;;24.47;13.50;;;3.60;99.90;;;;;;5047923;28;20469;-67
2024/03/09 06:15:16;;;;;;;23.53;12.70;;;3.60;99.90;;;;;;5049805;28;20452;-67
2024/03/09 06:17:46;;;;;;;23.67;12.40;;;3.50;99.90;;;;;;5048331;28;20463;-67
2024/03/09 06:20:17;;;;;;;21.27;11.87;;;3.40;99.90;;;;;;5047986;28;20452;-66
2024/03/09 06:22:46;;;;;;;23.47;13.00;;;3.40;99.90;;;;;;5044243;28;20837;-66
2024/03/09 06:25:22;;;;;;;24.00;13.57;;;3.30;99.90;;;;;;5048298;28;20810;-67
2024/03/09 06:27:54;;;;;;;25.03;12.13;;;3.30;99.90;;;;;;5040654;28;20452;-67
2024/03/09 06:30:23;;;;;;;25.73;13.20;;;3.20;99.90;;;;;;5049239;28;20562;-67
2024/03/09 06:32:58;;;;;;;21.33;11.33;;;3.10;99.90;;;;;;5043418;28;20502;-67
2024/03/09 06:35:27;;;;;;;22.43;12.57;;;3.10;99.90;;;;;;5045795;28;20465;-68
2024/03/09 06:37:58;;;;;;;22.67;12.73;;;3.10;99.90;;;;;;5054117;28;20470;-67
2024/03/09 06:40:27;;;;;;;23.37;12.60;;;3.00;99.90;;;;;;5049199;28;20451;-68
2024/03/09 06:42:59;;;;;;;25.90;12.00;;;3.00;99.90;;;;;;5046609;28;20472;-66
2024/03/09 06:45:28;;;;;;;23.57;11.20;;;3.00;99.90;;;;;;5049188;28;20478;-68
2024/03/09 06:47:57;;;;;;;26.60;12.53;;;3.00;99.90;;;;;;5048303;28;20471;-67
2024/03/09 06:50:26;;;;;;;22.30;11.50;;;3.00;99.90;;;;;;5044603;28;21189;-66
2024/03/09 06:52:54;;;;;;;29.77;12.90;;;3.00;99.90;;;;;;5047105;28;20481;-67
2024/03/09 06:55:25;;;;;;;23.53;12.17;;;3.00;99.90;;;;;;5048033;28;20450;-67
2024/03/09 06:57:53;;;;;;;25.43;12.80;;;3.10;99.90;;;;;;5043250;28;20482;-67
2024/03/09 07:00:28;;;;;;;22.03;11.83;;;3.30;99.90;;;;;;5047024;28;20914;-69
2024/03/09 07:02:58;;;;;;;27.10;12.23;;;3.30;99.90;;;;;;5046328;28;20842;-67
2024/03/09 07:05:27;;;;;;;23.90;12.03;;;3.40;99.90;;;;;;5047197;28;20451;-67
2024/03/09 07:07:56;;;;;;;23.40;11.60;;;3.50;99.90;;;;;;5047574;28;20542;-67
2024/03/09 07:10:24;;;;;;;24.77;11.50;;;3.70;99.90;;;;;;5047130;28;21067;-67
2024/03/09 07:12:52;;;;;;;25.30;12.43;;;3.70;99.90;;;;;;5050770;28;20573;-67
2024/03/09 07:15:22;;;;;;;22.50;11.57;;;3.80;99.90;;;;;;5041716;28;20466;-68
2024/03/09 07:17:53;;;;;;;24.47;12.20;;;3.90;99.90;;;;;;5044555;28;20531;-66
2024/03/09 07:20:23;;;;;;;24.43;11.83;;;4.00;99.90;;;;;;5046556;28;20461;-67
2024/03/09 07:22:52;;;;;;;24.23;13.50;;;4.00;99.90;;;;;;5045045;28;20492;-67
2024/03/09 07:25:23;;;;;;;22.43;11.83;;;4.10;99.90;;;;;;5047408;28;20445;-68
2024/03/09 07:27:54;;;;;;;21.63;12.10;;;4.20;99.90;;;;;;5047248;28;20468;-66
2024/03/09 07:30:23;;;;;;;24.43;13.17;;;4.30;99.90;;;;;;5046552;28;20488;-68
2024/03/09 07:32:53;;;;;;;23.73;13.63;;;4.40;99.90;;;;;;5046336;28;21002;-68
2024/03/09 07:35:27;;;;;;;26.53;12.50;;;4.50;99.90;;;;;;5043410;28;20445;-67
2024/03/09 07:37:58;;;;;;;25.00;12.10;;;4.60;99.90;;;;;;5041735;28;20454;-68
2024/03/09 07:40:30;;;;;;;21.53;11.87;;;4.70;99.90;;;;;;5046581;28;20474;-67
2024/03/09 07:42:58;;;;;;;25.27;14.07;;;4.80;99.90;;;;;;5048025;28;20558;-67
2024/03/09 07:45:27;;;;;;;22.17;12.27;;;4.90;99.90;;;;;;5046769;28;20884;-67
2024/03/09 07:47:58;;;;;;;21.07;12.27;;;4.90;99.90;;;;;;5047434;28;20480;-68
2024/03/09 07:50:27;;;;;;;21.40;12.43;;;5.10;99.90;;;;;;5046489;28;20825;-68
2024/03/09 07:52:57;;;;;;;22.07;12.53;;;5.20;99.90;;;;;;5047191;28;20448;-67
2024/03/09 07:55:27;;;;;;;22.63;11.87;;;5.30;99.90;;;;;;5046160;28;21118;-67
2024/03/09 07:57:57;;;;;;;23.30;11.83;;;5.40;99.90;;;;;;5047978;28;20825;-67
2024/03/09 08:00:44;;;;;;;23.33;12.03;;;5.50;99.90;;;;;;5046247;28;20552;-67
2024/03/09 08:03:14;;;;;;;23.53;12.47;;;5.60;99.90;;;;;;5042576;28;20499;-67
2024/03/09 08:05:43;;;;;;;23.43;12.20;;;5.70;99.90;;;;;;5046435;28;21004;-67
2024/03/09 08:08:11;;;;;;;24.20;12.27;;;5.80;99.90;;;;;;5045802;28;20466;-67
2024/03/09 08:10:46;;;;;;;21.07;11.30;;;6.00;99.90;;;;;;5050750;28;20874;-67
2024/03/09 08:13:16;;;;;;;23.57;12.83;;;6.10;99.90;;;;;;5042705;28;20845;-67
2024/03/09 08:15:45;;;;;;;20.37;10.53;;;6.20;99.90;;;;;;5042291;28;20461;-67
2024/03/09 08:18:14;;;;;;;22.17;12.97;;;6.20;99.90;;;;;;5042385;28;21150;-68
2024/03/09 08:20:42;;;;;;;22.43;12.17;;;6.20;99.90;;;;;;5045603;28;20465;-68
2024/03/09 08:23:11;;;;;;;23.80;13.30;;;6.30;99.90;;;;;;5046515;28;20954;-69
2024/03/09 08:25:41;;;;;;;22.10;12.50;;;6.40;99.90;;;;;;5048027;28;21241;-67
2024/03/09 08:28:10;;;;;;;21.07;11.80;;;6.50;99.90;;;;;;5046196;28;21203;-67
2024/03/09 08:30:38;;;;;;;22.27;12.50;;;6.60;99.90;;;;;;5044196;28;20540;-67
2024/03/09 08:33:09;;;;;;;23.87;12.93;;;6.70;99.90;;;;;;5041109;28;20549;-67
2024/03/09 08:35:39;;;;;;;25.63;12.83;;;6.80;99.90;;;;;;5046927;28;20483;-67
2024/03/09 08:38:07;;;;;;;20.93;12.20;;;7.00;99.90;;;;;;5046450;28;20595;-67
2024/03/09 08:40:35;;;;;;;22.20;12.80;;;7.20;99.90;;;;;;5046010;28;20915;-67
2024/03/09 08:43:06;;;;;;;22.87;11.63;;;7.40;99.90;;;;;;5041196;28;20484;-69
2024/03/09 08:45:34;;;;;;;20.43;11.57;;;7.60;99.90;;;;;;5045495;28;20482;-68
2024/03/09 08:48:03;;;;;;;22.83;12.50;;;7.80;99.90;;;;;;5049262;28;20476;-67
2024/03/09 08:50:34;;;;;;;20.87;12.50;;;8.00;99.90;;;;;;5048939;28;20476;-67
2024/03/09 08:53:04;;;;;;;21.33;12.10;;;8.20;99.90;;;;;;5049146;28;20554;-67
2024/03/09 08:55:33;;;;;;;22.00;12.57;;;8.50;99.90;;;;;;5046175;28;20457;-65
2024/03/09 08:58:01;;;;;;;23.10;12.90;;;8.60;99.90;;;;;;5049085;28;20438;-65
2024/03/09 09:00:29;;;;;;;22.70;11.57;;;8.90;99.90;;;;;;5048751;28;20591;-67
2024/03/09 09:02:59;;;;;;;21.37;12.50;;;8.90;99.90;;;;;;5049982;28;20499;-66
2024/03/09 09:05:28;;;;;;;20.10;11.97;;;9.10;99.90;;;;;;5049278;28;20442;-65
2024/03/09 09:07:58;;;;;;;19.93;11.50;;;9.30;99.90;;;;;;5050149;28;20832;-66
2024/03/09 09:10:28;;;;;;;23.57;13.27;;;9.60;99.90;;;;;;5048777;28;20463;-66
2024/03/09 09:12:56;;;;;;;19.33;11.90;;;9.90;99.90;;;;;;5049116;28;20490;-65
2024/03/09 09:15:24;;;;;;;20.60;12.23;;;10.10;99.90;;;;;;5050524;28;20453;-66
2024/03/09 09:17:55;;;;;;;19.30;11.57;;;10.60;99.90;;;;;;5049408;28;20781;-66
2024/03/09 09:20:24;;;;;;;20.13;12.10;;;10.90;99.90;;;;;;5049323;28;20489;-66
2024/03/09 09:22:53;;;;;;;20.17;12.30;;;11.20;99.90;;;;;;5049281;28;21040;-68
2024/03/09 09:25:25;;;;;;;22.20;13.03;;;11.60;99.90;;;;;;5046069;28;20840;-66
2024/03/09 09:27:59;;;;;;;22.23;12.83;;;11.90;99.90;;;;;;5047224;28;20454;-67
2024/03/09 09:30:27;;;;;;;23.23;12.80;;;12.20;98.30;;;;;;5048030;28;20551;-66
2024/03/09 09:32:56;;;;;;;20.23;13.17;;;12.50;97.20;;;;;;5038952;28;20485;-66
2024/03/09 09:35:25;;;;;;;20.20;11.83;;;12.70;93.20;;;;;;5047364;28;21095;-65
2024/03/09 09:37:54;;;;;;;22.23;13.70;;;12.70;93.30;;;;;;5049726;28;20513;-66
2024/03/09 09:40:22;;;;;;;22.60;13.17;;;12.70;92.30;;;;;;5048847;28;20468;-65
2024/03/09 09:42:50;;;;;;;21.30;12.57;;;12.70;91.90;;;;;;5048692;28;20468;-65
2024/03/09 09:45:22;;;;;;;21.33;13.67;;;12.70;93.50;;;;;;5048586;28;21124;-67
2024/03/09 09:47:50;;;;;;;21.20;13.50;;;13.00;91.60;;;;;;5044041;28;20502;-67
2024/03/09 09:50:19;;;;;;;22.07;12.73;;;13.00;88.10;;;;;;5047792;28;20511;-66
2024/03/09 09:52:49;;;;;;;18.23;11.57;;;12.70;89.10;;;;;;5051919;28;20500;-66
2024/03/09 09:55:19;;;;;;;20.40;12.60;;;12.50;89.00;;;;;;5048242;28;20476;-65
2024/03/09 09:57:47;;;;;;;22.07;13.43;;;12.40;89.30;;;;;;5048247;28;20443;-65
2024/03/09 10:00:17;;;;;;;21.57;12.17;;;12.10;90.70;;;;;;5047689;28;20472;-65
2024/03/09 10:02:48;;;;;;;21.27;12.23;;;12.10;88.70;;;;;;5047111;28;20544;-64
2024/03/09 10:05:19;;;;;;;21.57;12.17;;;12.50;90.10;;;;;;5047999;28;20440;-66
2024/03/09 10:07:59;;;;;;;20.20;12.57;;;13.10;87.80;;;;;;5046882;28;20484;-66
2024/03/09 10:10:29;;;;;;;20.63;12.07;;;13.60;86.90;;;;;;5053395;28;20553;-66
2024/03/09 10:13:07;;;;;;;17.90;11.00;;;14.10;84.40;;;;;;5045859;28;20482;-66
2024/03/09 10:15:36;;;;;;;20.87;11.30;;;14.70;82.70;;;;;;5045501;28;20508;-66
2024/03/09 10:18:07;;;;;;;22.00;11.67;;;15.20;79.10;;;;;;5046428;28;20474;-66
2024/03/09 10:20:36;;;;;;;18.53;10.47;;;15.10;77.30;;;;;;5047339;28;20474;-65
2024/03/09 10:23:08;;;;;;;18.83;11.33;;;15.40;77.10;;;;;;5044815;28;20562;-66
2024/03/09 10:25:37;;;;;;;16.30;10.23;;;15.30;71.50;;;;;;5050820;28;20485;-69
2024/03/09 10:28:06;;;;;;;19.33;10.63;;;15.30;72.90;;;;;;5050960;28;20482;-66
2024/03/09 10:30:37;;;;;;;19.77;11.07;;;15.50;73.10;;;;;;5053388;28;20475;-66
2024/03/09 10:33:11;;;;;;;17.10;10.70;;;16.00;73.70;;;;;;5048423;28;20482;-65
2024/03/09 10:35:42;;;;;;;17.30;10.47;;;16.80;68.90;;;;;;5050843;28;20483;-66
2024/03/09 10:38:12;;;;;;;17.80;11.20;;;16.80;64.50;;;;;;5058002;28;20467;-66
2024/03/09 10:40:41;;;;;;;16.10;9.70;;;17.10;66.40;;;;;;5052038;28;20478;-66
2024/03/09 10:43:14;;;;;;;17.37;10.50;;;17.30;64.80;;;;;;5054170;28;20839;-66
2024/03/09 10:45:42;;;;;;;16.20;9.07;;;17.70;63.50;;;;;;5053696;28;20995;-66
2024/03/09 10:48:12;;;;;;;16.20;10.00;;;18.00;61.20;;;;;;5052573;28;20517;-65
2024/03/09 10:50:46;;;;;;;15.87;9.50;;;18.40;61.30;;;;;;5048738;28;20506;-66
2024/03/09 10:53:28;;;;;;;16.70;9.90;;;18.60;59.20;;;;;;5051909;28;21139;-67
2024/03/09 10:56:04;;;;;;;17.83;10.27;;;18.80;59.00;;;;;;5052671;28;20549;-67
2024/03/09 10:58:34;;;;;;;18.80;10.00;;;19.10;59.20;;;;;;5043063;28;21086;-67
2024/03/09 11:01:03;;;;;;;19.53;9.90;;;19.50;57.80;;;;;;5046826;28;20480;-67
2024/03/09 11:03:35;;;;;;;16.03;8.80;;;19.80;56.90;;;;;;5051479;28;21035;-68
2024/03/09 11:06:03;;;;;;;14.90;8.87;;;19.90;55.70;;;;;;5043411;28;20480;-66
2024/03/09 11:08:32;;;;;;;15.40;9.23;;;19.90;53.40;;;;;;5014491;28;20542;-66
2024/03/09 11:11:02;;;;;;;15.30;8.70;;;20.10;54.10;;;;;;5052487;28;20472;-67
2024/03/09 11:13:30;;;;;;;19.13;10.00;;;20.40;53.10;;;;;;5048524;28;20492;-66
2024/03/09 11:15:59;;;;;;;14.70;9.60;;;20.70;53.40;;;;;;5043460;28;20471;-66
2024/03/09 11:18:27;;;;;;;13.77;7.40;;;21.00;53.30;;;;;;5042386;28;20541;-67
2024/03/09 11:20:59;;;;;;;13.23;7.93;;;21.40;51.00;;;;;;5042823;28;20470;-66
2024/03/09 11:23:32;;;;;;;13.63;7.70;;;21.70;50.50;;;;;;5046698;28;20487;-66
2024/03/09 11:26:02;;;;;;;13.50;7.70;;;21.90;48.90;;;;;;5047920;28;21008;-68
2024/03/09 11:28:50;;;;;;;13.10;7.27;;;22.20;49.20;;;;;;5047507;28;20949;-65
2024/03/09 11:31:26;;;;;;;12.30;6.30;;;22.50;49.80;;;;;;5056357;28;20523;-68
2024/03/09 11:33:57;;;;;;;12.80;6.50;;;22.80;48.10;;;;;;5052404;28;20587;-66
2024/03/09 11:36:43;;;;;;;13.53;7.33;;;23.10;47.00;;;;;;5047489;28;20494;-66
2024/03/09 11:39:11;;;;;;;13.33;7.37;;;23.20;46.50;;;;;;5045255;28;20463;-66
2024/03/09 11:41:45;;;;;;;13.83;6.97;;;23.40;45.30;;;;;;5048527;28;20483;-66
2024/03/09 11:44:16;;;;;;;11.93;6.93;;;23.70;46.50;;;;;;5047164;28;22244;-66
2024/03/09 11:46:45;;;;;;;12.27;6.97;;;23.80;45.60;;;;;;5051562;28;20440;-66
2024/03/09 11:49:13;;;;;;;12.73;7.10;;;24.10;43.60;;;;;;5045534;28;20472;-66
2024/03/09 11:51:42;;;;;;;13.30;7.60;;;24.60;44.60;;;;;;5050746;28;20545;-66
2024/03/09 11:54:12;;;;;;;12.20;7.37;;;24.50;44.10;;;;;;5051001;28;20484;-66
2024/03/09 11:56:41;;;;;;;15.33;7.30;;;24.80;44.60;;;;;;5049779;28;20480;-65
2024/03/09 11:59:10;;;;;;;12.47;7.10;;;25.30;43.00;;;;;;5051174;28;20459;-66
2024/03/09 12:01:40;;;;;;;11.30;6.40;;;25.50;42.60;;;;;;5050664;28;20444;-66
2024/03/09 12:04:10;;;;;;;10.33;5.03;;;25.50;41.30;;;;;;5056213;28;21032;-66
2024/03/09 12:06:40;;;;;;;11.77;5.50;;;25.70;41.00;;;;;;5057165;28;20447;-65
2024/03/09 12:09:12;;;;;;;11.03;5.63;;;25.90;41.70;;;;;;5058511;28;21007;-66
2024/03/09 12:11:45;;;;;;;11.90;5.87;;;25.60;41.00;;;;;;5054517;28;20483;-66
2024/03/09 12:14:16;;;;;;;10.57;5.17;;;25.60;40.40;;;;;;5046771;28;20490;-67
2024/03/09 12:16:48;;;;;;;10.80;5.20;;;25.80;39.60;;;;;;5048618;28;20470;-66
2024/03/09 12:19:18;;;;;;;11.47;5.93;;;25.70;40.00;;;;;;5054658;28;20902;-66
2024/03/09 12:21:46;;;;;;;11.67;5.60;;;25.90;39.70;;;;;;5047469;28;20504;-66
2024/03/09 12:24:15;;;;;;;10.10;4.90;;;26.00;38.80;;;;;;5051216;28;20439;-66
2024/03/09 12:26:44;;;;;;;10.67;4.77;;;26.20;38.60;;;;;;5051552;28;20458;-66
2024/03/09 12:29:12;;;;;;;9.13;4.00;;;26.30;38.40;;;;;;5051902;28;20509;-66
2024/03/09 12:31:44;;;;;;;10.33;4.43;;;26.40;37.50;;;;;;5058265;28;20499;-66
2024/03/09 12:34:13;;;;;;;10.90;4.77;;;26.80;37.40;;;;;;5058159;28;20869;-67
2024/03/09 12:36:50;;;;;;;9.10;3.93;;;26.70;37.10;;;;;;5056594;28;20446;-66
2024/03/09 12:39:20;;;;;;;10.57;5.20;;;26.80;36.70;;;;;;5053834;28;20465;-65
2024/03/09 12:41:53;;;;;;;9.87;4.43;;;26.30;36.50;;;;;;5053136;28;20517;-67
2024/03/09 12:44:22;;;;;;;10.57;4.50;;;26.10;36.80;;;;;;5053108;28;20455;-65
2024/03/09 12:46:51;;;;;;;9.57;4.17;;;25.70;37.30;;;;;;5050054;28;20527;-67
2024/03/09 12:49:20;;;;;;;11.03;5.17;;;25.50;36.80;;;;;;5048929;28;20984;-66
2024/03/09 12:51:49;;;;;;;10.90;4.97;;;25.60;38.20;;;;;;5048861;28;20455;-66